sensor_id;sensor_type;location;lat;lon;timestamp;pressure;altitude;pressure_sealevel;temperature;humidity
10824;BME280;39116;59.332;18.034;2023-03-13T00:02:10;99730.69;;;-2.50;92.88
10824;BME280;39116;59.332;18.034;2023-03-13T00:04:32;99723.19;;;-2.47;89.02
10824;BME280;39116;59.332;18.034;2023-03-13T00:06:53;99726.44;;;-2.51;88.47
10824;BME280;39116;59.332;18.034;2023-03-13T00:09:16;99723.34;;;-2.44;89.03
10824;BME280;39116;59.332;18.034;2023-03-13T00:11:38;99727.00;;;-2.37;88.81
10824;BME280;39116;59.332;18.034;2023-03-13T00:14:03;99730.03;;;-2.26;88.07
10824;BME280;39116;59.332;18.034;2023-03-13T00:16:26;99722.81;;;-2.56;88.35
10824;BME280;39116;59.332;18.034;2023-03-13T00:18:50;99720.75;;;-2.83;93.19
10824;BME280;39116;59.332;18.034;2023-03-13T00:21:12;99737.25;;;-2.75;92.99
10824;BME280;39116;59.332;18.034;2023-03-13T00:23:36;99737.91;;;-2.79;94.76
10824;BME280;39116;59.332;18.034;2023-03-13T00:25:59;99738.75;;;-2.80;97.16
10824;BME280;39116;59.332;18.034;2023-03-13T00:28:21;99737.41;;;-2.72;95.08
10824;BME280;39116;59.332;18.034;2023-03-13T00:30:44;99741.13;;;-2.83;97.99
10824;BME280;39116;59.332;18.034;2023-03-13T00:33:06;99716.09;;;-2.54;95.02
10824;BME280;39116;59.332;18.034;2023-03-13T00:35:28;99722.44;;;-2.44;96.28
10824;BME280;39116;59.332;18.034;2023-03-13T00:37:50;99714.56;;;-2.51;95.99
10824;BME280;39116;59.332;18.034;2023-03-13T00:40:12;99706.16;;;-2.67;98.75
10824;BME280;39116;59.332;18.034;2023-03-13T00:42:34;99722.88;;;-2.55;98.90
10824;BME280;39116;59.332;18.034;2023-03-13T00:44:56;99720.13;;;-2.40;100.00
10824;BME280;39116;59.332;18.034;2023-03-13T00:47:19;99711.25;;;-2.87;99.85
10824;BME280;39116;59.332;18.034;2023-03-13T00:49:41;99711.63;;;-2.97;100.00
10824;BME280;39116;59.332;18.034;2023-03-13T00:52:03;99717.09;;;-3.08;100.00
10824;BME280;39116;59.332;18.034;2023-03-13T00:54:25;99700.91;;;-2.90;100.00
10824;BME280;39116;59.332;18.034;2023-03-13T00:56:47;99705.31;;;-3.05;100.00
10824;BME280;39116;59.332;18.034;2023-03-13T00:59:09;99704.81;;;-2.79;100.00
10824;BME280;39116;59.332;18.034;2023-03-13T01:01:33;99692.03;;;-2.98;100.00
10824;BME280;39116;59.332;18.034;2023-03-13T01:03:57;99672.53;;;-2.80;100.00
10824;BME280;39116;59.332;18.034;2023-03-13T01:06:21;99699.44;;;-2.46;99.20
10824;BME280;39116;59.332;18.034;2023-03-13T01:08:44;99694.09;;;-2.72;100.00
10824;BME280;39116;59.332;18.034;2023-03-13T01:11:07;99690.47;;;-2.57;99.34
10824;BME280;39116;59.332;18.034;2023-03-13T01:13:30;99682.91;;;-2.75;100.00
10824;BME280;39116;59.332;18.034;2023-03-13T01:15:53;99684.03;;;-2.49;98.76
10824;BME280;39116;59.332;18.034;2023-03-13T01:18:15;99675.56;;;-2.28;98.81
10824;BME280;39116;59.332;18.034;2023-03-13T01:20:40;99679.38;;;-2.19;98.26
10824;BME280;39116;59.332;18.034;2023-03-13T01:23:02;99672.78;;;-2.14;97.47
10824;BME280;39116;59.332;18.034;2023-03-13T01:25:23;99656.59;;;-2.14;95.21
10824;BME280;39116;59.332;18.034;2023-03-13T01:27:45;99659.56;;;-2.24;99.83
10824;BME280;39116;59.332;18.034;2023-03-13T01:30:10;99656.59;;;-2.14;98.96
10824;BME280;39116;59.332;18.034;2023-03-13T01:32:33;99650.09;;;-2.48;100.00
10824;BME280;39116;59.332;18.034;2023-03-13T01:34:55;99653.81;;;-2.20;100.00
10824;BME280;39116;59.332;18.034;2023-03-13T01:37:18;99665.50;;;-2.25;100.00
10824;BME280;39116;59.332;18.034;2023-03-13T01:39:40;99657.66;;;-2.50;100.00
10824;BME280;39116;59.332;18.034;2023-03-13T01:42:03;99652.06;;;-2.21;100.00
10824;BME280;39116;59.332;18.034;2023-03-13T01:44:25;99639.94;;;-2.87;100.00
10824;BME280;39116;59.332;18.034;2023-03-13T01:46:47;99630.38;;;-2.33;100.00
10824;BME280;39116;59.332;18.034;2023-03-13T01:49:12;99606.22;;;-2.41;100.00
10824;BME280;39116;59.332;18.034;2023-03-13T01:51:37;99607.66;;;-2.47;100.00
10824;BME280;39116;59.332;18.034;2023-03-13T01:54:06;99646.59;;;-2.50;100.00
10824;BME280;39116;59.332;18.034;2023-03-13T01:56:33;99642.25;;;-2.33;100.00
10824;BME280;39116;59.332;18.034;2023-03-13T01:58:57;99638.19;;;-2.49;100.00
10824;BME280;39116;59.332;18.034;2023-03-13T02:01:20;99624.16;;;-2.78;100.00
10824;BME280;39116;59.332;18.034;2023-03-13T02:03:43;99631.75;;;-2.80;100.00
10824;BME280;39116;59.332;18.034;2023-03-13T02:06:06;99632.47;;;-3.02;100.00
10824;BME280;39116;59.332;18.034;2023-03-13T02:08:30;99631.16;;;-2.74;100.00
10824;BME280;39116;59.332;18.034;2023-03-13T02:11:00;99623.69;;;-2.89;100.00
10824;BME280;39116;59.332;18.034;2023-03-13T02:13:24;99615.09;;;-2.52;100.00
10824;BME280;39116;59.332;18.034;2023-03-13T02:15:46;99609.22;;;-2.51;100.00
10824;BME280;39116;59.332;18.034;2023-03-13T02:18:08;99603.38;;;-2.68;100.00
10824;BME280;39116;59.332;18.034;2023-03-13T02:20:31;99616.34;;;-2.83;100.00
10824;BME280;39116;59.332;18.034;2023-03-13T02:22:58;99612.22;;;-2.60;100.00
10824;BME280;39116;59.332;18.034;2023-03-13T02:25:31;99596.88;;;-2.61;100.00
10824;BME280;39116;59.332;18.034;2023-03-13T02:27:57;99600.66;;;-2.52;100.00
10824;BME280;39116;59.332;18.034;2023-03-13T02:30:21;99606.13;;;-2.44;100.00
10824;BME280;39116;59.332;18.034;2023-03-13T02:32:44;99589.16;;;-2.63;100.00
10824;BME280;39116;59.332;18.034;2023-03-13T02:35:09;99602.00;;;-2.40;100.00
10824;BME280;39116;59.332;18.034;2023-03-13T02:37:32;99582.91;;;-2.50;100.00
10824;BME280;39116;59.332;18.034;2023-03-13T02:39:55;99588.66;;;-2.75;100.00
10824;BME280;39116;59.332;18.034;2023-03-13T02:42:21;99563.16;;;-2.75;100.00
10824;BME280;39116;59.332;18.034;2023-03-13T02:44:45;99594.66;;;-2.54;100.00
10824;BME280;39116;59.332;18.034;2023-03-13T02:47:07;99598.34;;;-2.47;100.00
10824;BME280;39116;59.332;18.034;2023-03-13T02:49:30;99602.59;;;-2.46;100.00
10824;BME280;39116;59.332;18.034;2023-03-13T02:51:53;99606.78;;;-2.67;100.00
10824;BME280;39116;59.332;18.034;2023-03-13T02:54:18;99607.63;;;-2.88;100.00
10824;BME280;39116;59.332;18.034;2023-03-13T02:56:43;99607.69;;;-2.67;100.00
10824;BME280;39116;59.332;18.034;2023-03-13T02:59:07;99602.59;;;-2.67;100.00
10824;BME280;39116;59.332;18.034;2023-03-13T03:01:29;99596.06;;;-2.60;100.00
10824;BME280;39116;59.332;18.034;2023-03-13T03:03:52;99591.09;;;-2.57;100.00
10824;BME280;39116;59.332;18.034;2023-03-13T03:06:14;99583.69;;;-2.72;100.00
10824;BME280;39116;59.332;18.034;2023-03-13T03:08:36;99592.59;;;-2.82;100.00
10824;BME280;39116;59.332;18.034;2023-03-13T03:11:01;99595.56;;;-2.73;100.00
10824;BME280;39116;59.332;18.034;2023-03-13T03:13:23;99589.41;;;-2.78;100.00
10824;BME280;39116;59.332;18.034;2023-03-13T03:15:46;99576.63;;;-2.58;100.00
10824;BME280;39116;59.332;18.034;2023-03-13T03:18:08;99582.94;;;-2.70;100.00
10824;BME280;39116;59.332;18.034;2023-03-13T03:20:30;99582.78;;;-2.94;100.00
10824;BME280;39116;59.332;18.034;2023-03-13T03:22:52;99573.28;;;-2.77;100.00
10824;BME280;39116;59.332;18.034;2023-03-13T03:25:14;99573.44;;;-2.74;100.00
10824;BME280;39116;59.332;18.034;2023-03-13T03:27:36;99574.91;;;-2.79;100.00
10824;BME280;39116;59.332;18.034;2023-03-13T03:29:58;99570.28;;;-3.07;100.00
10824;BME280;39116;59.332;18.034;2023-03-13T03:32:21;99569.34;;;-2.90;100.00
10824;BME280;39116;59.332;18.034;2023-03-13T03:34:43;99567.41;;;-2.76;100.00
10824;BME280;39116;59.332;18.034;2023-03-13T03:37:05;99582.53;;;-2.79;100.00
10824;BME280;39116;59.332;18.034;2023-03-13T03:39:27;99578.13;;;-2.63;100.00
10824;BME280;39116;59.332;18.034;2023-03-13T03:41:49;99562.94;;;-2.60;100.00
10824;BME280;39116;59.332;18.034;2023-03-13T03:44:11;99569.38;;;-2.49;100.00
10824;BME280;39116;59.332;18.034;2023-03-13T03:46:33;99559.59;;;-2.59;100.00
10824;BME280;39116;59.332;18.034;2023-03-13T03:48:56;99559.59;;;-2.59;100.00
10824;BME280;39116;59.332;18.034;2023-03-13T03:51:18;99561.34;;;-2.58;100.00
10824;BME280;39116;59.332;18.034;2023-03-13T03:53:40;99557.41;;;-2.50;100.00
10824;BME280;39116;59.332;18.034;2023-03-13T03:56:02;99523.28;;;-2.96;100.00
10824;BME280;39116;59.332;18.034;2023-03-13T03:58:24;99565.56;;;-2.59;100.00
10824;BME280;39116;59.332;18.034;2023-03-13T04:00:46;99551.25;;;-2.55;100.00
10824;BME280;39116;59.332;18.034;2023-03-13T04:03:08;99555.28;;;-2.60;100.00
10824;BME280;39116;59.332;18.034;2023-03-13T04:05:32;99498.97;;;-2.88;100.00
10824;BME280;39116;59.332;18.034;2023-03-13T04:07:54;99551.16;;;-2.58;100.00
10824;BME280;39116;59.332;18.034;2023-03-13T04:10:16;99551.28;;;-2.34;100.00
10824;BME280;39116;59.332;18.034;2023-03-13T04:12:38;99537.16;;;-2.47;100.00
10824;BME280;39116;59.332;18.034;2023-03-13T04:15:00;99536.25;;;-2.49;100.00
10824;BME280;39116;59.332;18.034;2023-03-13T04:17:22;99529.66;;;-2.44;100.00
10824;BME280;39116;59.332;18.034;2023-03-13T04:19:44;99526.72;;;-2.32;100.00
10824;BME280;39116;59.332;18.034;2023-03-13T04:22:07;99513.34;;;-2.26;100.00
10824;BME280;39116;59.332;18.034;2023-03-13T04:24:29;99517.50;;;-2.28;100.00
10824;BME280;39116;59.332;18.034;2023-03-13T04:26:51;99500.06;;;-2.40;100.00
10824;BME280;39116;59.332;18.034;2023-03-13T04:29:13;99502.47;;;-2.43;100.00
10824;BME280;39116;59.332;18.034;2023-03-13T04:31:35;99506.88;;;-2.39;100.00
10824;BME280;39116;59.332;18.034;2023-03-13T04:33:56;99495.69;;;-2.64;100.00
10824;BME280;39116;59.332;18.034;2023-03-13T04:36:18;99480.13;;;-2.51;100.00
10824;BME280;39116;59.332;18.034;2023-03-13T04:38:42;99476.94;;;-2.45;100.00
10824;BME280;39116;59.332;18.034;2023-03-13T04:41:04;99477.44;;;-2.54;100.00
10824;BME280;39116;59.332;18.034;2023-03-13T04:43:25;99479.63;;;-2.42;100.00
10824;BME280;39116;59.332;18.034;2023-03-13T04:45:50;99473.69;;;-2.41;100.00
10824;BME280;39116;59.332;18.034;2023-03-13T04:48:13;99470.84;;;-2.48;100.00
10824;BME280;39116;59.332;18.034;2023-03-13T04:50:35;99459.72;;;-2.51;100.00
10824;BME280;39116;59.332;18.034;2023-03-13T04:52:57;99459.28;;;-2.40;100.00
10824;BME280;39116;59.332;18.034;2023-03-13T04:55:21;99467.94;;;-2.14;100.00
10824;BME280;39116;59.332;18.034;2023-03-13T04:57:42;99460.00;;;-2.22;100.00
10824;BME280;39116;59.332;18.034;2023-03-13T05:00:06;99456.88;;;-2.15;100.00
10824;BME280;39116;59.332;18.034;2023-03-13T05:02:29;99456.94;;;-2.13;100.00
10824;BME280;39116;59.332;18.034;2023-03-13T05:04:51;99445.81;;;-2.15;100.00
10824;BME280;39116;59.332;18.034;2023-03-13T05:07:13;99428.53;;;-2.00;100.00
10824;BME280;39116;59.332;18.034;2023-03-13T05:09:35;99410.50;;;-2.04;100.00
10824;BME280;39116;59.332;18.034;2023-03-13T05:11:58;99423.06;;;-1.86;100.00
10824;BME280;39116;59.332;18.034;2023-03-13T05:14:20;99427.81;;;-1.96;100.00
10824;BME280;39116;59.332;18.034;2023-03-13T05:16:42;99428.47;;;-2.01;100.00
10824;BME280;39116;59.332;18.034;2023-03-13T05:19:04;99418.25;;;-2.01;100.00
10824;BME280;39116;59.332;18.034;2023-03-13T05:21:26;99428.84;;;-1.90;100.00
10824;BME280;39116;59.332;18.034;2023-03-13T05:23:47;99422.47;;;-1.79;100.00
10824;BME280;39116;59.332;18.034;2023-03-13T05:26:09;99410.25;;;-1.88;100.00
10824;BME280;39116;59.332;18.034;2023-03-13T05:28:33;99410.06;;;-1.70;100.00
10824;BME280;39116;59.332;18.034;2023-03-13T05:30:55;99408.84;;;-1.80;100.00
10824;BME280;39116;59.332;18.034;2023-03-13T05:33:17;99412.00;;;-1.63;100.00
10824;BME280;39116;59.332;18.034;2023-03-13T05:35:39;99392.13;;;-1.71;100.00
10824;BME280;39116;59.332;18.034;2023-03-13T05:38:00;99381.38;;;-1.63;100.00
10824;BME280;39116;59.332;18.034;2023-03-13T05:40:22;99369.22;;;-1.70;100.00
10824;BME280;39116;59.332;18.034;2023-03-13T05:42:44;99358.25;;;-1.43;100.00
10824;BME280;39116;59.332;18.034;2023-03-13T05:45:09;99367.31;;;-1.26;100.00
10824;BME280;39116;59.332;18.034;2023-03-13T05:47:31;99373.75;;;-1.37;100.00
10824;BME280;39116;59.332;18.034;2023-03-13T05:49:53;99358.91;;;-1.23;100.00
10824;BME280;39116;59.332;18.034;2023-03-13T05:52:15;99370.56;;;-1.04;100.00
10824;BME280;39116;59.332;18.034;2023-03-13T05:54:37;99370.38;;;-1.10;100.00
10824;BME280;39116;59.332;18.034;2023-03-13T05:56:59;99360.19;;;-1.36;100.00
10824;BME280;39116;59.332;18.034;2023-03-13T05:59:20;99351.72;;;-1.08;100.00
10824;BME280;39116;59.332;18.034;2023-03-13T06:01:44;99361.13;;;-0.80;100.00
10824;BME280;39116;59.332;18.034;2023-03-13T06:04:06;99354.09;;;-0.87;100.00
10824;BME280;39116;59.332;18.034;2023-03-13T06:06:28;99273.56;;;-1.30;100.00
10824;BME280;39116;59.332;18.034;2023-03-13T06:08:50;99356.81;;;-0.82;100.00
10824;BME280;39116;59.332;18.034;2023-03-13T06:11:12;99353.03;;;-0.93;100.00
10824;BME280;39116;59.332;18.034;2023-03-13T06:13:34;99349.91;;;-0.85;100.00
10824;BME280;39116;59.332;18.034;2023-03-13T06:15:57;99314.72;;;-0.93;100.00
10824;BME280;39116;59.332;18.034;2023-03-13T06:18:21;99338.34;;;-0.73;100.00
10824;BME280;39116;59.332;18.034;2023-03-13T06:20:43;99331.97;;;-0.59;100.00
10824;BME280;39116;59.332;18.034;2023-03-13T06:23:05;99314.78;;;-0.63;100.00
10824;BME280;39116;59.332;18.034;2023-03-13T06:25:27;99324.56;;;-0.79;100.00
10824;BME280;39116;59.332;18.034;2023-03-13T06:27:49;99321.81;;;-0.56;100.00
10824;BME280;39116;59.332;18.034;2023-03-13T06:30:11;99324.00;;;-0.40;100.00
10824;BME280;39116;59.332;18.034;2023-03-13T06:32:33;99310.66;;;-0.29;100.00
10824;BME280;39116;59.332;18.034;2023-03-13T06:34:57;99305.00;;;-0.19;100.00
10824;BME280;39116;59.332;18.034;2023-03-13T06:37:19;99314.72;;;-0.06;100.00
10824;BME280;39116;59.332;18.034;2023-03-13T06:39:40;99296.63;;;-0.13;100.00
10824;BME280;39116;59.332;18.034;2023-03-13T06:42:03;99172.47;;;-0.66;100.00
10824;BME280;39116;59.332;18.034;2023-03-13T06:44:25;99298.00;;;0.06;100.00
10824;BME280;39116;59.332;18.034;2023-03-13T06:46:47;99303.69;;;-0.05;100.00
10824;BME280;39116;59.332;18.034;2023-03-13T06:49:09;99292.78;;;0.03;100.00
10824;BME280;39116;59.332;18.034;2023-03-13T06:51:32;99287.91;;;0.12;100.00
10824;BME280;39116;59.332;18.034;2023-03-13T06:53:54;99273.25;;;0.38;100.00
10824;BME280;39116;59.332;18.034;2023-03-13T06:56:16;99258.69;;;0.37;100.00
10824;BME280;39116;59.332;18.034;2023-03-13T06:58:38;99263.59;;;0.28;100.00
10824;BME280;39116;59.332;18.034;2023-03-13T07:01:05;99250.34;;;0.44;100.00
10824;BME280;39116;59.332;18.034;2023-03-13T07:03:28;99230.59;;;0.38;100.00
10824;BME280;39116;59.332;18.034;2023-03-13T07:05:54;99211.50;;;0.62;100.00
10824;BME280;39116;59.332;18.034;2023-03-13T07:08:17;99224.00;;;0.85;100.00
10824;BME280;39116;59.332;18.034;2023-03-13T07:10:41;99222.25;;;0.84;100.00
10824;BME280;39116;59.332;18.034;2023-03-13T07:13:03;99222.16;;;0.81;100.00
10824;BME280;39116;59.332;18.034;2023-03-13T07:15:25;99222.78;;;1.07;100.00
10824;BME280;39116;59.332;18.034;2023-03-13T07:17:47;99223.63;;;1.07;100.00
10824;BME280;39116;59.332;18.034;2023-03-13T07:20:10;99213.91;;;1.32;100.00
10824;BME280;39116;59.332;18.034;2023-03-13T07:22:33;99208.94;;;1.41;100.00
10824;BME280;39116;59.332;18.034;2023-03-13T07:24:56;99182.22;;;1.28;100.00
10824;BME280;39116;59.332;18.034;2023-03-13T07:27:18;99190.22;;;1.45;100.00
10824;BME280;39116;59.332;18.034;2023-03-13T07:29:42;99154.34;;;1.47;100.00
10824;BME280;39116;59.332;18.034;2023-03-13T07:32:04;99166.34;;;1.48;100.00
10824;BME280;39116;59.332;18.034;2023-03-13T07:34:26;99170.00;;;1.61;100.00
10824;BME280;39116;59.332;18.034;2023-03-13T07:36:48;99042.03;;;0.82;100.00
10824;BME280;39116;59.332;18.034;2023-03-13T07:39:10;99164.81;;;1.58;100.00
10824;BME280;39116;59.332;18.034;2023-03-13T07:41:34;99165.72;;;2.07;100.00
10824;BME280;39116;59.332;18.034;2023-03-13T07:43:56;99161.91;;;1.86;100.00
10824;BME280;39116;59.332;18.034;2023-03-13T07:46:18;99166.97;;;1.80;100.00
10824;BME280;39116;59.332;18.034;2023-03-13T07:48:42;99146.94;;;2.11;100.00
10824;BME280;39116;59.332;18.034;2023-03-13T07:51:06;99136.47;;;1.99;100.00
10824;BME280;39116;59.332;18.034;2023-03-13T07:53:28;99119.56;;;2.12;100.00
10824;BME280;39116;59.332;18.034;2023-03-13T07:55:54;99124.47;;;1.96;100.00
10824;BME280;39116;59.332;18.034;2023-03-13T07:58:17;99108.41;;;2.09;100.00
10824;BME280;39116;59.332;18.034;2023-03-13T08:00:39;99109.38;;;2.16;100.00
10824;BME280;39116;59.332;18.034;2023-03-13T08:03:01;99100.06;;;2.21;100.00
10824;BME280;39116;59.332;18.034;2023-03-13T08:05:26;99090.94;;;2.42;100.00
10824;BME280;39116;59.332;18.034;2023-03-13T08:07:48;99086.97;;;2.06;100.00
10824;BME280;39116;59.332;18.034;2023-03-13T08:10:10;99071.56;;;2.06;100.00
10824;BME280;39116;59.332;18.034;2023-03-13T08:12:32;99066.81;;;2.31;100.00
10824;BME280;39116;59.332;18.034;2023-03-13T08:14:55;99043.19;;;1.97;100.00
10824;BME280;39116;59.332;18.034;2023-03-13T08:17:18;99073.09;;;1.95;100.00
10824;BME280;39116;59.332;18.034;2023-03-13T08:19:40;98952.25;;;1.23;100.00
10824;BME280;39116;59.332;18.034;2023-03-13T08:22:02;99062.66;;;1.82;100.00
10824;BME280;39116;59.332;18.034;2023-03-13T08:24:24;99066.16;;;1.87;100.00
10824;BME280;39116;59.332;18.034;2023-03-13T08:26:46;99059.69;;;2.13;100.00
10824;BME280;39116;59.332;18.034;2023-03-13T08:29:09;99040.91;;;2.15;100.00
10824;BME280;39116;59.332;18.034;2023-03-13T08:31:34;99024.16;;;1.82;100.00
10824;BME280;39116;59.332;18.034;2023-03-13T08:33:56;99035.31;;;1.84;100.00
10824;BME280;39116;59.332;18.034;2023-03-13T08:36:20;99030.56;;;2.09;100.00
10824;BME280;39116;59.332;18.034;2023-03-13T08:38:45;99034.63;;;1.95;100.00
10824;BME280;39116;59.332;18.034;2023-03-13T08:41:07;99020.81;;;1.88;100.00
10824;BME280;39116;59.332;18.034;2023-03-13T08:43:29;99029.03;;;1.65;100.00
10824;BME280;39116;59.332;18.034;2023-03-13T08:45:53;99022.81;;;2.06;100.00
10824;BME280;39116;59.332;18.034;2023-03-13T08:48:17;99007.47;;;2.75;100.00
10824;BME280;39116;59.332;18.034;2023-03-13T08:50:39;98996.97;;;2.58;100.00
10824;BME280;39116;59.332;18.034;2023-03-13T08:53:01;98995.47;;;2.75;100.00
10824;BME280;39116;59.332;18.034;2023-03-13T08:55:23;98997.00;;;2.61;100.00
10824;BME280;39116;59.332;18.034;2023-03-13T08:57:45;98969.53;;;2.55;100.00
10824;BME280;39116;59.332;18.034;2023-03-13T09:00:08;98976.72;;;2.87;100.00
10824;BME280;39116;59.332;18.034;2023-03-13T09:02:32;98965.47;;;2.74;100.00
10824;BME280;39116;59.332;18.034;2023-03-13T09:04:56;98959.66;;;2.92;100.00
10824;BME280;39116;59.332;18.034;2023-03-13T09:07:18;98961.94;;;2.64;100.00
10824;BME280;39116;59.332;18.034;2023-03-13T09:09:40;98933.59;;;2.55;100.00
10824;BME280;39116;59.332;18.034;2023-03-13T09:12:02;98914.03;;;2.68;100.00
10824;BME280;39116;59.332;18.034;2023-03-13T09:14:25;98918.44;;;2.83;100.00
10824;BME280;39116;59.332;18.034;2023-03-13T09:16:47;98919.41;;;2.93;100.00
10824;BME280;39116;59.332;18.034;2023-03-13T09:19:09;98916.66;;;2.76;100.00
10824;BME280;39116;59.332;18.034;2023-03-13T09:21:34;98907.38;;;2.90;100.00
10824;BME280;39116;59.332;18.034;2023-03-13T09:23:56;98885.94;;;2.88;100.00
10824;BME280;39116;59.332;18.034;2023-03-13T09:26:19;98885.13;;;2.94;100.00
10824;BME280;39116;59.332;18.034;2023-03-13T09:28:42;98873.94;;;2.87;100.00
10824;BME280;39116;59.332;18.034;2023-03-13T09:31:08;98877.66;;;3.23;100.00
10824;BME280;39116;59.332;18.034;2023-03-13T09:33:30;98863.03;;;3.17;100.00
10824;BME280;39116;59.332;18.034;2023-03-13T09:35:52;98869.72;;;2.95;100.00
10824;BME280;39116;59.332;18.034;2023-03-13T09:38:16;98859.50;;;3.03;100.00
10824;BME280;39116;59.332;18.034;2023-03-13T09:40:41;98860.28;;;2.94;100.00
10824;BME280;39116;59.332;18.034;2023-03-13T09:43:18;98852.00;;;3.34;100.00
10824;BME280;39116;59.332;18.034;2023-03-13T09:45:44;98837.41;;;3.28;100.00
10824;BME280;39116;59.332;18.034;2023-03-13T09:48:12;98819.63;;;3.59;100.00
10824;BME280;39116;59.332;18.034;2023-03-13T09:50:41;98824.63;;;3.40;100.00
10824;BME280;39116;59.332;18.034;2023-03-13T09:53:11;98827.06;;;3.19;100.00
10824;BME280;39116;59.332;18.034;2023-03-13T09:55:37;98808.31;;;3.32;100.00
10824;BME280;39116;59.332;18.034;2023-03-13T09:58:02;98790.16;;;3.11;100.00
10824;BME280;39116;59.332;18.034;2023-03-13T10:00:26;98793.63;;;3.19;100.00
10824;BME280;39116;59.332;18.034;2023-03-13T10:02:55;98774.75;;;3.14;100.00
10824;BME280;39116;59.332;18.034;2023-03-13T10:05:20;98770.63;;;3.36;100.00
10824;BME280;39116;59.332;18.034;2023-03-13T10:07:42;98657.88;;;2.58;100.00
10824;BME280;39116;59.332;18.034;2023-03-13T10:10:10;98743.03;;;3.13;100.00
10824;BME280;39116;59.332;18.034;2023-03-13T10:12:42;98738.72;;;3.08;100.00
10824;BME280;39116;59.332;18.034;2023-03-13T10:15:33;98753.28;;;3.09;100.00
10824;BME280;39116;59.332;18.034;2023-03-13T10:17:58;98738.75;;;3.14;100.00
10824;BME280;39116;59.332;18.034;2023-03-13T10:20:24;98729.34;;;3.19;100.00
10824;BME280;39116;59.332;18.034;2023-03-13T10:22:49;98715.66;;;3.20;100.00
10824;BME280;39116;59.332;18.034;2023-03-13T10:25:23;98721.75;;;3.40;100.00
10824;BME280;39116;59.332;18.034;2023-03-13T10:27:50;98725.06;;;3.21;100.00
10824;BME280;39116;59.332;18.034;2023-03-13T10:30:20;98704.53;;;3.30;100.00
10824;BME280;39116;59.332;18.034;2023-03-13T10:32:43;98689.84;;;2.98;100.00
10824;BME280;39116;59.332;18.034;2023-03-13T10:35:07;98692.53;;;3.20;100.00
10824;BME280;39116;59.332;18.034;2023-03-13T10:37:41;98668.41;;;2.99;100.00
10824;BME280;39116;59.332;18.034;2023-03-13T10:40:13;98656.44;;;2.98;100.00
10824;BME280;39116;59.332;18.034;2023-03-13T10:42:41;98662.44;;;3.03;100.00
10824;BME280;39116;59.332;18.034;2023-03-13T10:45:06;98662.53;;;3.27;100.00
10824;BME280;39116;59.332;18.034;2023-03-13T10:47:32;98649.78;;;3.47;100.00
10824;BME280;39116;59.332;18.034;2023-03-13T10:49:56;98636.00;;;3.32;100.00
10824;BME280;39116;59.332;18.034;2023-03-13T10:52:32;98631.72;;;3.36;100.00
10824;BME280;39116;59.332;18.034;2023-03-13T10:54:59;98618.00;;;3.37;100.00
10824;BME280;39116;59.332;18.034;2023-03-13T10:57:28;98612.00;;;3.42;100.00
10824;BME280;39116;59.332;18.034;2023-03-13T10:59:51;98607.66;;;3.15;100.00
10824;BME280;39116;59.332;18.034;2023-03-13T11:02:22;98582.78;;;3.08;100.00
10824;BME280;39116;59.332;18.034;2023-03-13T11:04:45;98580.22;;;3.16;100.00
10824;BME280;39116;59.332;18.034;2023-03-13T11:07:15;98572.56;;;3.37;100.00
10824;BME280;39116;59.332;18.034;2023-03-13T11:09:40;98558.88;;;3.41;100.00
10824;BME280;39116;59.332;18.034;2023-03-13T11:12:04;98533.16;;;3.48;100.00
10824;BME280;39116;59.332;18.034;2023-03-13T11:14:27;98515.97;;;3.13;100.00
10824;BME280;39116;59.332;18.034;2023-03-13T11:16:51;98531.41;;;3.37;100.00
10824;BME280;39116;59.332;18.034;2023-03-13T11:19:43;98516.88;;;3.50;100.00
10824;BME280;39116;59.332;18.034;2023-03-13T11:22:28;98512.56;;;3.68;100.00
10824;BME280;39116;59.332;18.034;2023-03-13T11:24:59;98510.00;;;3.41;100.00
10824;BME280;39116;59.332;18.034;2023-03-13T11:27:27;98508.28;;;3.40;100.00
10824;BME280;39116;59.332;18.034;2023-03-13T11:30:00;98502.28;;;3.41;100.00
10824;BME280;39116;59.332;18.034;2023-03-13T11:32:31;98503.97;;;3.41;100.00
10824;BME280;39116;59.332;18.034;2023-03-13T11:34:57;98492.00;;;3.75;100.00
10824;BME280;39116;59.332;18.034;2023-03-13T11:37:21;98474.00;;;3.66;100.00
10824;BME280;39116;59.332;18.034;2023-03-13T11:39:52;98439.69;;;3.27;100.00
10824;BME280;39116;59.332;18.034;2023-03-13T11:42:34;98457.69;;;3.58;100.00
10824;BME280;39116;59.332;18.034;2023-03-13T11:45:04;98415.69;;;3.06;100.00
10824;BME280;39116;59.332;18.034;2023-03-13T11:50:07;98401.13;;;2.96;100.00
10824;BME280;39116;59.332;18.034;2023-03-13T11:52:54;98422.53;;;3.46;100.00
10824;BME280;39116;59.332;18.034;2023-03-13T11:55:31;98401.97;;;3.55;100.00
10824;BME280;39116;59.332;18.034;2023-03-13T11:58:03;98402.81;;;3.19;100.00
10824;BME280;39116;59.332;18.034;2023-03-13T12:00:32;98356.56;;;3.03;100.00
10824;BME280;39116;59.332;18.034;2023-03-13T12:03:00;98385.69;;;3.52;100.00
10824;BME280;39116;59.332;18.034;2023-03-13T12:05:27;98377.94;;;3.53;100.00
10824;BME280;39116;59.332;18.034;2023-03-13T12:07:55;98359.97;;;3.30;100.00
10824;BME280;39116;59.332;18.034;2023-03-13T12:10:25;98365.97;;;3.14;100.00
10824;BME280;39116;59.332;18.034;2023-03-13T12:12:51;98359.91;;;3.72;100.00
10824;BME280;39116;59.332;18.034;2023-03-13T12:15:20;98353.09;;;3.51;100.00
10824;BME280;39116;59.332;18.034;2023-03-13T12:17:48;98323.97;;;3.39;100.00
10824;BME280;39116;59.332;18.034;2023-03-13T12:20:18;98227.19;;;3.01;100.00
10824;BME280;39116;59.332;18.034;2023-03-13T12:22:48;98332.50;;;3.63;100.00
10824;BME280;39116;59.332;18.034;2023-03-13T12:25:18;98309.13;;;4.12;100.00
10824;BME280;39116;59.332;18.034;2023-03-13T12:27:44;98252.06;;;2.96;100.00
10824;BME280;39116;59.332;18.034;2023-03-13T12:30:19;98309.28;;;3.74;100.00
10824;BME280;39116;59.332;18.034;2023-03-13T12:32:49;98276.75;;;3.62;100.00